createdAt,value
2022-11-16T00:02:15.675Z,7.80
2022-11-16T00:04:43.945Z,7.75
2022-11-16T00:07:12.615Z,7.71
2022-11-16T00:09:41.141Z,7.72
2022-11-16T00:12:12.765Z,7.74
2022-11-16T00:14:41.037Z,7.66
2022-11-16T00:17:09.326Z,7.69
2022-11-16T00:19:37.721Z,7.61
2022-11-16T00:22:06.076Z,7.60
2022-11-16T00:24:34.401Z,7.65
2022-11-16T00:27:02.758Z,7.68
2022-11-16T00:29:32.970Z,7.64
2022-11-16T00:32:01.385Z,7.71
2022-11-16T00:34:29.883Z,7.67
2022-11-16T00:36:58.263Z,7.54
2022-11-16T00:39:26.636Z,7.58
2022-11-16T00:41:54.919Z,7.63
2022-11-16T00:44:23.392Z,7.65
2022-11-16T00:46:53.527Z,7.61
2022-11-16T00:49:22.586Z,7.43
2022-11-16T00:51:50.902Z,7.48
2022-11-16T00:54:19.333Z,7.56
2022-11-16T00:56:47.751Z,7.58
2022-11-16T00:59:16.118Z,7.63
2022-11-16T01:01:44.655Z,7.63
2022-11-16T01:04:14.795Z,7.67
2022-11-16T01:06:44.354Z,7.62
2022-11-16T01:09:12.747Z,7.58
2022-11-16T01:11:57.997Z,7.57
2022-11-16T01:14:26.292Z,7.51
2022-11-16T01:16:54.650Z,7.45
2022-11-16T01:19:24.401Z,7.38
2022-11-16T01:21:52.817Z,7.29
2022-11-16T01:24:21.126Z,7.25
2022-11-16T01:26:49.476Z,7.19
2022-11-16T01:29:18.493Z,7.18
2022-11-16T01:31:53.175Z,7.11
2022-11-16T01:34:21.811Z,7.11
2022-11-16T01:36:52.715Z,7.12
2022-11-16T01:39:21.302Z,7.14
2022-11-16T01:41:57.127Z,7.11
2022-11-16T01:44:58.407Z,7.22
2022-11-16T01:47:26.903Z,7.19
2022-11-16T01:50:00.598Z,7.16
2022-11-16T01:52:36.038Z,7.20
2022-11-16T01:55:05.513Z,7.14
2022-11-16T01:57:46.935Z,7.10
2022-11-16T02:00:17.195Z,7.16
2022-11-16T02:02:56.038Z,7.09
2022-11-16T02:05:44.275Z,7.13
2022-11-16T02:08:43.612Z,7.13
2022-11-16T02:11:26.843Z,7.15
2022-11-16T02:14:05.019Z,7.15
2022-11-16T02:16:39.838Z,7.20
2022-11-16T02:19:20.915Z,7.24
2022-11-16T02:21:58.447Z,7.21
2022-11-16T02:24:43.890Z,7.28
2022-11-16T02:27:37.937Z,7.18
2022-11-16T02:30:08.702Z,7.08
2022-11-16T02:32:47.679Z,7.09
2022-11-16T02:35:22.005Z,7.03
2022-11-16T02:37:52.981Z,7.06
2022-11-16T02:40:24.024Z,7.03
2022-11-16T02:42:55.264Z,7.09
2022-11-16T02:45:27.605Z,7.25
2022-11-16T02:48:02.396Z,7.29
2022-11-16T02:50:31.362Z,7.22
2022-11-16T02:52:59.716Z,7.27
2022-11-16T02:55:32.046Z,7.26
2022-11-16T02:58:02.667Z,7.29
2022-11-16T03:00:37.300Z,7.40
2022-11-16T03:03:17.416Z,7.34
2022-11-16T03:05:48.140Z,7.36
2022-11-16T03:08:23.246Z,7.31
2022-11-16T03:11:12.581Z,7.43
2022-11-16T03:13:42.917Z,7.65
2022-11-16T03:16:15.516Z,7.47
2022-11-16T03:18:44.959Z,7.61
2022-11-16T03:21:19.294Z,7.52
2022-11-16T03:23:48.074Z,7.55
2022-11-16T03:26:19.401Z,7.42
2022-11-16T03:28:52.767Z,7.51
2022-11-16T03:31:27.416Z,7.35
2022-11-16T03:33:58.372Z,7.40
2022-11-16T03:36:29.533Z,7.42
2022-11-16T03:39:00.572Z,7.45
2022-11-16T03:41:29.959Z,7.43
2022-11-16T03:43:59.303Z,7.25
2022-11-16T03:46:29.535Z,7.06
2022-11-16T03:48:59.262Z,6.92
2022-11-16T03:51:31.075Z,7.03
2022-11-16T03:53:59.620Z,7.06
2022-11-16T03:56:29.502Z,7.06
2022-11-16T03:58:58.469Z,7.22
2022-11-16T04:01:28.422Z,6.95
2022-11-16T04:03:57.243Z,6.87
2022-11-16T04:06:43.614Z,7.13
2022-11-16T04:09:29.676Z,7.39
2022-11-16T04:12:15.697Z,6.85
2022-11-16T04:15:01.800Z,6.98
2022-11-16T04:17:51.622Z,7.24
2022-11-16T04:20:37.403Z,7.04
2022-11-16T04:23:26.975Z,7.11
2022-11-16T04:25:55.307Z,7.14
2022-11-16T04:28:26.871Z,7.62
2022-11-16T04:31:21.262Z,7.64
2022-11-16T04:34:18.317Z,7.14
2022-11-16T04:37:08.906Z,7.05
2022-11-16T04:39:37.279Z,6.76
2022-11-16T04:42:15.547Z,6.81
2022-11-16T04:45:04.054Z,7.22
2022-11-16T04:47:41.964Z,6.80
2022-11-16T04:50:12.435Z,7.03
2022-11-16T04:52:43.020Z,6.83
2022-11-16T04:55:14.310Z,6.76
2022-11-16T04:57:42.687Z,6.74
2022-11-16T05:00:12.254Z,6.82
2022-11-16T05:02:41.544Z,6.85
2022-11-16T05:05:11.864Z,6.82
2022-11-16T05:07:43.136Z,6.73
2022-11-16T05:10:17.546Z,6.81
2022-11-16T05:12:46.147Z,6.96
2022-11-16T05:15:14.952Z,6.87
2022-11-16T05:17:43.535Z,6.95
2022-11-16T05:20:36.085Z,7.07
2022-11-16T05:23:06.148Z,7.05
2022-11-16T05:25:37.717Z,6.99
2022-11-16T05:28:09.725Z,7.06
2022-11-16T05:30:42.013Z,7.06
2022-11-16T05:33:11.214Z,7.06
2022-11-16T05:35:44.533Z,7.16
2022-11-16T05:38:12.846Z,7.05
2022-11-16T05:40:45.792Z,7.00
2022-11-16T05:43:14.087Z,7.00
2022-11-16T05:45:51.086Z,6.98
2022-11-16T05:48:20.204Z,7.04
2022-11-16T05:50:51.232Z,7.01
2022-11-16T05:53:25.094Z,6.98
2022-11-16T05:55:53.885Z,6.92
2022-11-16T05:58:22.995Z,6.88
2022-11-16T06:00:52.508Z,6.87
2022-11-16T06:03:23.226Z,6.92
2022-11-16T06:05:56.240Z,6.97
2022-11-16T06:08:26.770Z,7.09
2022-11-16T06:10:56.879Z,7.09
2022-11-16T06:13:25.255Z,6.95
2022-11-16T06:15:57.385Z,7.04
2022-11-16T06:18:27.352Z,6.95
2022-11-16T06:20:57.477Z,6.85
2022-11-16T06:23:26.006Z,6.93
2022-11-16T06:25:56.010Z,7.02
2022-11-16T06:28:27.183Z,7.07
2022-11-16T06:30:56.532Z,7.14
2022-11-16T06:33:32.189Z,7.10
2022-11-16T06:36:05.496Z,7.08
2022-11-16T06:38:34.205Z,7.09
2022-11-16T06:41:04.181Z,7.27
2022-11-16T06:43:37.755Z,6.92
2022-11-16T06:46:07.101Z,6.78
2022-11-16T06:48:35.658Z,6.76
2022-11-16T06:51:09.612Z,7.24
2022-11-16T06:53:38.023Z,6.82
2022-11-16T06:56:07.963Z,6.72
2022-11-16T06:58:43.030Z,6.89
2022-11-16T07:01:14.080Z,6.50
2022-11-16T07:03:44.446Z,6.39
2022-11-16T07:06:15.742Z,6.90
2022-11-16T07:08:47.015Z,6.77
2022-11-16T07:11:20.332Z,6.84
2022-11-16T07:13:49.729Z,6.85
2022-11-16T07:16:18.559Z,6.60
2022-11-16T07:18:56.561Z,6.80
2022-11-16T07:21:27.191Z,6.64
2022-11-16T07:23:56.899Z,6.78
2022-11-16T07:26:26.301Z,7.11
2022-11-16T07:28:59.858Z,7.01
2022-11-16T07:31:29.500Z,7.83
2022-11-16T07:34:24.254Z,7.86
2022-11-16T07:37:07.450Z,8.23
2022-11-16T07:39:36.019Z,7.71
2022-11-16T07:42:11.905Z,7.94
2022-11-16T07:45:02.355Z,7.46
2022-11-16T07:47:38.013Z,7.71
2022-11-16T07:50:10.975Z,7.76
2022-11-16T07:52:40.879Z,7.91
2022-11-16T07:55:16.792Z,8.03
2022-11-16T07:57:52.992Z,7.73
2022-11-16T08:00:23.425Z,8.10
2022-11-16T08:02:59.732Z,7.31
2022-11-16T08:05:29.541Z,6.94
2022-11-16T08:07:59.310Z,6.87
2022-11-16T08:10:28.139Z,7.06
2022-11-16T08:12:56.823Z,6.91
2022-11-16T08:15:26.702Z,6.82
2022-11-16T08:17:55.343Z,7.25
2022-11-16T08:20:23.649Z,7.37
2022-11-16T08:22:52.754Z,7.53
2022-11-16T08:25:22.617Z,7.48
2022-11-16T08:27:51.118Z,7.65
2022-11-16T08:30:21.767Z,7.53
2022-11-16T08:32:50.217Z,7.65
2022-11-16T08:35:18.794Z,7.42
2022-11-16T08:37:48.459Z,7.66
2022-11-16T08:40:17.615Z,7.66
2022-11-16T08:42:47.372Z,7.96
2022-11-16T08:45:17.974Z,8.15
2022-11-16T08:47:46.958Z,7.78
2022-11-16T08:50:16.440Z,7.89
2022-11-16T08:52:45.138Z,8.18
2022-11-16T08:55:14.074Z,8.00
2022-11-16T08:57:45.520Z,7.92
2022-11-16T09:00:18.561Z,7.91
2022-11-16T09:02:46.930Z,8.18
2022-11-16T09:05:15.336Z,8.02
2022-11-16T09:07:45.864Z,8.33
2022-11-16T09:10:14.469Z,8.22
2022-11-16T09:12:42.965Z,8.01
2022-11-16T09:15:11.543Z,8.34
2022-11-16T09:17:41.329Z,7.99
2022-11-16T09:20:10.403Z,8.00
2022-11-16T09:22:38.779Z,7.76
2022-11-16T09:25:08.477Z,7.83
2022-11-16T09:27:36.823Z,7.61
2022-11-16T09:30:07.296Z,7.87
2022-11-16T09:32:35.607Z,8.07
2022-11-16T09:35:06.081Z,8.24
2022-11-16T09:37:34.424Z,8.22
2022-11-16T09:40:02.716Z,8.43
2022-11-16T09:42:39.440Z,8.08
2022-11-16T09:45:12.997Z,7.72
2022-11-16T09:47:54.431Z,7.62
2022-11-16T09:50:43.407Z,7.65
2022-11-16T09:53:32.872Z,7.86
2022-11-16T09:56:05.298Z,8.16
2022-11-16T09:58:40.002Z,7.80
2022-11-16T10:01:21.213Z,7.54
2022-11-16T10:03:52.238Z,7.95
2022-11-16T10:06:24.752Z,8.15
2022-11-16T10:08:56.742Z,8.38
2022-11-16T10:11:34.193Z,8.28
2022-11-16T10:14:13.693Z,8.51
2022-11-16T10:16:47.628Z,8.67
2022-11-16T10:19:22.423Z,9.13
2022-11-16T10:21:57.130Z,9.23
2022-11-16T10:24:45.340Z,9.19
2022-11-16T10:27:26.005Z,9.51
2022-11-16T10:30:01.188Z,9.39
2022-11-16T10:32:31.284Z,9.22
2022-11-16T10:35:05.434Z,9.28
2022-11-16T10:37:38.218Z,9.73
2022-11-16T10:40:17.806Z,9.58
2022-11-16T10:42:48.578Z,9.44
2022-11-16T10:45:20.720Z,9.22
2022-11-16T10:47:53.427Z,9.20
2022-11-16T10:50:34.770Z,8.89
2022-11-16T10:53:04.992Z,9.35
2022-11-16T10:55:33.401Z,9.13
2022-11-16T10:58:03.268Z,8.95
2022-11-16T11:00:43.198Z,9.27
2022-11-16T11:03:12.154Z,9.59
2022-11-16T11:05:49.984Z,9.78
2022-11-16T11:08:28.231Z,9.43
2022-11-16T11:11:22.821Z,9.18
2022-11-16T11:14:05.554Z,9.52
2022-11-16T11:16:34.037Z,9.88
2022-11-16T11:19:20.694Z,9.95
2022-11-16T11:21:49.408Z,10.16
2022-11-16T11:27:08.063Z,9.97
2022-11-16T11:29:38.052Z,9.68
2022-11-16T11:32:08.056Z,9.63
2022-11-16T11:34:41.908Z,9.67
2022-11-16T11:37:16.212Z,9.60
2022-11-16T11:39:46.225Z,9.67
2022-11-16T11:42:23.341Z,9.83
2022-11-16T11:44:58.811Z,10.03
2022-11-16T11:47:57.316Z,9.90
2022-11-16T11:50:36.648Z,9.95
2022-11-16T11:53:09.003Z,9.98
2022-11-16T11:55:39.431Z,9.82
2022-11-16T11:58:12.614Z,9.41
2022-11-16T12:00:47.036Z,9.37
2022-11-16T12:03:37.208Z,9.25
2022-11-16T12:06:11.034Z,9.07
2022-11-16T12:08:50.937Z,9.08
2022-11-16T12:11:28.311Z,9.03
2022-11-16T12:14:07.771Z,9.13
2022-11-16T12:16:40.723Z,9.35
2022-11-16T12:19:34.060Z,9.34
2022-11-16T12:22:10.688Z,9.70
2022-11-16T12:24:50.840Z,9.72
2022-11-16T12:27:28.519Z,9.46
2022-11-16T12:30:02.929Z,9.56
2022-11-16T12:32:52.412Z,9.75
2022-11-16T12:35:35.128Z,9.83
2022-11-16T12:38:09.660Z,9.83
2022-11-16T12:40:44.785Z,9.60
2022-11-16T12:43:18.714Z,9.61
2022-11-16T12:45:58.518Z,9.90
2022-11-16T12:48:41.947Z,9.73
2022-11-16T12:51:19.341Z,9.38
2022-11-16T12:53:57.308Z,9.60
2022-11-16T12:56:34.301Z,9.62
2022-11-16T12:59:18.574Z,9.72
2022-11-16T13:01:57.549Z,9.47
2022-11-16T13:04:31.875Z,9.19
2022-11-16T13:07:10.492Z,9.39
2022-11-16T13:09:42.759Z,9.27
2022-11-16T13:12:15.531Z,9.01
2022-11-16T13:14:47.303Z,9.00
2022-11-16T13:17:21.063Z,8.68
2022-11-16T13:20:01.918Z,9.15
2022-11-16T13:22:30.710Z,9.37
2022-11-16T13:25:03.939Z,9.15
2022-11-16T13:27:37.973Z,9.02
2022-11-16T13:30:17.061Z,9.04
2022-11-16T13:32:57.522Z,9.33
2022-11-16T13:35:25.801Z,9.63
2022-11-16T13:37:54.482Z,9.75
2022-11-16T13:40:28.416Z,9.14
2022-11-16T13:43:18.202Z,9.61
2022-11-16T13:45:57.123Z,9.56
2022-11-16T13:48:27.568Z,9.65
2022-11-16T13:50:57.543Z,9.82
2022-11-16T13:54:25.272Z,9.89
2022-11-16T13:56:18.606Z,9.95
2022-11-16T13:58:48.964Z,9.92
2022-11-16T14:01:19.803Z,9.79
2022-11-16T14:03:49.475Z,9.67
2022-11-16T14:06:55.400Z,9.61
2022-11-16T14:09:43.923Z,9.56
2022-11-16T14:12:53.955Z,9.57
2022-11-16T14:15:24.539Z,9.50
2022-11-16T14:17:57.760Z,9.52
2022-11-16T14:20:37.292Z,9.51
2022-11-16T14:23:15.661Z,9.48
2022-11-16T14:25:47.825Z,9.39
2022-11-16T14:28:46.542Z,9.34
2022-11-16T14:31:19.794Z,9.32
2022-11-16T14:33:53.064Z,9.37
2022-11-16T14:36:38.463Z,9.40
2022-11-16T14:39:31.330Z,9.21
2022-11-16T14:42:02.815Z,9.03
2022-11-16T14:44:33.884Z,9.01
2022-11-16T14:47:05.201Z,8.84
2022-11-16T14:49:37.562Z,8.69
2022-11-16T14:52:08.357Z,8.66
2022-11-16T14:54:39.767Z,8.52
2022-11-16T14:57:13.698Z,8.40
2022-11-16T14:59:42.043Z,8.36
2022-11-16T15:02:18.337Z,8.34
2022-11-16T15:04:48.761Z,8.36
2022-11-16T15:07:18.503Z,8.30
2022-11-16T15:09:50.893Z,8.29
2022-11-16T15:12:37.872Z,8.20
2022-11-16T15:15:09.093Z,8.27
2022-11-16T15:17:37.851Z,8.14
2022-11-16T15:20:17.472Z,8.03
2022-11-16T15:22:47.426Z,8.02
2022-11-16T15:25:27.905Z,8.09
2022-11-16T15:27:56.833Z,8.06
2022-11-16T15:30:26.666Z,8.08
2022-11-16T15:32:55.749Z,7.97
2022-11-16T15:35:27.003Z,7.94
2022-11-16T15:38:03.288Z,7.94
2022-11-16T15:40:31.751Z,7.96
2022-11-16T15:43:00.864Z,7.90
2022-11-16T15:45:29.970Z,7.95
2022-11-16T15:48:00.589Z,7.92
2022-11-16T15:50:30.830Z,7.91
2022-11-16T15:53:00.006Z,7.88
2022-11-16T15:55:34.766Z,7.82
2022-11-16T15:58:06.658Z,7.83
2022-11-16T16:00:36.030Z,7.85
2022-11-16T16:03:07.792Z,7.83
2022-11-16T16:05:39.786Z,7.77
2022-11-16T16:08:28.426Z,7.71
2022-11-16T16:11:11.304Z,7.66
2022-11-16T16:13:41.717Z,7.79
2022-11-16T16:16:26.317Z,7.76
2022-11-16T16:18:58.277Z,7.75
2022-11-16T16:21:30.644Z,7.70
2022-11-16T16:24:00.545Z,7.71
2022-11-16T16:26:29.004Z,7.74
2022-11-16T16:28:57.410Z,7.78
2022-11-16T16:31:25.780Z,7.72
2022-11-16T16:33:55.669Z,7.63
2022-11-16T16:36:24.029Z,7.75
2022-11-16T16:38:54.206Z,7.66
2022-11-16T16:41:24.583Z,7.60
2022-11-16T16:43:53.952Z,7.56
2022-11-16T16:46:23.102Z,7.61
2022-11-16T16:48:51.942Z,7.54
2022-11-16T16:51:20.534Z,7.61
2022-11-16T16:53:49.086Z,7.61
2022-11-16T16:56:20.079Z,7.62
2022-11-16T16:58:49.196Z,7.62
2022-11-16T17:01:18.320Z,7.59
2022-11-16T17:03:47.395Z,7.57
2022-11-16T17:06:16.416Z,7.59
2022-11-16T17:08:46.042Z,7.53
2022-11-16T17:11:16.500Z,7.70
2022-11-16T17:13:48.137Z,7.71
2022-11-16T17:16:19.617Z,7.71
2022-11-16T17:18:48.931Z,7.67
2022-11-16T17:21:17.921Z,7.64
2022-11-16T17:23:48.177Z,7.63
2022-11-16T17:26:17.697Z,7.69
2022-11-16T17:28:49.566Z,7.70
2022-11-16T17:31:19.545Z,7.71
2022-11-16T17:33:49.029Z,7.69
2022-11-16T17:36:18.683Z,7.67
2022-11-16T17:38:48.878Z,7.72
2022-11-16T17:41:21.177Z,7.68
2022-11-16T17:43:55.654Z,7.71
2022-11-16T17:46:26.743Z,7.69
2022-11-16T17:48:58.202Z,7.67
2022-11-16T17:51:30.451Z,7.53
2022-11-16T17:54:00.989Z,7.48
2022-11-16T17:56:30.676Z,7.42
2022-11-16T17:59:05.487Z,7.43
2022-11-16T18:01:35.316Z,7.43
2022-11-16T18:04:06.929Z,7.42
2022-11-16T18:06:36.711Z,7.38
2022-11-16T18:09:07.967Z,7.40
2022-11-16T18:11:39.904Z,7.39
2022-11-16T18:14:10.743Z,7.34
2022-11-16T18:16:43.977Z,7.31
2022-11-16T18:19:18.277Z,7.29
2022-11-16T18:21:48.435Z,7.33
2022-11-16T18:24:17.982Z,7.30
2022-11-16T18:26:48.314Z,7.34
2022-11-16T18:29:19.973Z,7.37
2022-11-16T18:31:50.654Z,7.37
2022-11-16T18:34:21.561Z,7.17
2022-11-16T18:36:51.646Z,7.13
2022-11-16T18:39:21.926Z,7.13
2022-11-16T18:41:55.305Z,6.98
2022-11-16T18:44:28.232Z,6.96
2022-11-16T18:46:58.593Z,6.91
2022-11-16T18:49:28.143Z,6.76
2022-11-16T18:51:58.908Z,6.72
2022-11-16T18:54:31.102Z,6.71
2022-11-16T18:57:01.752Z,6.67
2022-11-16T18:59:32.818Z,6.69
2022-11-16T19:02:03.329Z,6.67
2022-11-16T19:04:33.320Z,6.76
2022-11-16T19:07:03.985Z,6.75
2022-11-16T19:09:35.962Z,6.72
2022-11-16T19:12:06.957Z,6.72
2022-11-16T19:14:41.184Z,6.72
2022-11-16T19:17:11.503Z,6.73
2022-11-16T19:19:42.792Z,6.69
2022-11-16T19:22:13.051Z,6.74
2022-11-16T19:24:43.921Z,6.78
2022-11-16T19:27:14.765Z,6.76
2022-11-16T19:29:46.835Z,6.77
2022-11-16T19:32:17.047Z,6.75
2022-11-16T19:34:46.717Z,6.77
2022-11-16T19:37:17.431Z,6.76
2022-11-16T19:39:47.956Z,6.74
2022-11-16T19:42:18.691Z,6.73
2022-11-16T19:44:50.290Z,6.72
2022-11-16T19:47:23.630Z,6.75
2022-11-16T19:49:53.679Z,6.76
2022-11-16T19:52:25.080Z,6.71
2022-11-16T19:54:57.716Z,6.67
2022-11-16T19:57:27.927Z,6.67
2022-11-16T20:00:02.346Z,6.68
2022-11-16T20:02:43.126Z,6.62
2022-11-16T20:05:13.717Z,6.55
2022-11-16T20:07:45.223Z,6.55
2022-11-16T20:10:15.311Z,6.55
2022-11-16T20:12:46.705Z,6.50
2022-11-16T20:15:21.527Z,6.48
2022-11-16T20:17:57.452Z,6.46
2022-11-16T20:20:27.051Z,6.53
2022-11-16T20:22:57.400Z,6.50
2022-11-16T20:25:28.363Z,6.48
2022-11-16T20:27:59.152Z,6.49
2022-11-16T20:30:33.024Z,6.47
2022-11-16T20:33:03.281Z,6.49
2022-11-16T20:35:33.217Z,6.46
2022-11-16T20:38:03.278Z,6.43
2022-11-16T20:40:36.093Z,6.42
2022-11-16T20:43:06.172Z,6.42
2022-11-16T20:45:38.206Z,6.45
2022-11-16T20:48:09.611Z,6.46
2022-11-16T20:50:39.696Z,6.45
2022-11-16T20:53:10.440Z,6.49
2022-11-16T20:55:40.309Z,6.47
2022-11-16T20:58:10.111Z,6.33
2022-11-16T21:00:40.772Z,6.33
2022-11-16T21:03:11.362Z,6.29
2022-11-16T21:05:43.435Z,6.30
2022-11-16T21:08:12.612Z,6.28
2022-11-16T21:10:41.313Z,6.19
2022-11-16T21:13:33.372Z,6.23
2022-11-16T21:16:08.270Z,6.15
2022-11-16T21:18:37.393Z,6.02
2022-11-16T21:21:07.684Z,5.92
2022-11-16T21:23:37.852Z,5.84
2022-11-16T21:26:08.208Z,5.71
2022-11-16T21:28:37.071Z,5.65
2022-11-16T21:31:08.686Z,5.63
2022-11-16T21:33:37.675Z,5.72
2022-11-16T21:36:07.515Z,5.57
2022-11-16T21:38:36.393Z,5.55
2022-11-16T21:41:06.536Z,5.53
2022-11-16T21:43:36.460Z,5.53
2022-11-16T21:46:07.870Z,5.46
2022-11-16T21:48:37.000Z,5.43
2022-11-16T21:51:07.000Z,5.35
2022-11-16T21:53:36.419Z,5.33
2022-11-16T21:56:06.023Z,5.35
2022-11-16T21:58:34.620Z,5.35
2022-11-16T22:01:03.576Z,5.30
2022-11-16T22:03:34.608Z,5.28
2022-11-16T22:06:22.978Z,5.22
2022-11-16T22:08:51.705Z,5.18
2022-11-16T22:11:22.328Z,5.14
2022-11-16T22:13:51.318Z,5.15
2022-11-16T22:16:21.136Z,5.24
2022-11-16T22:18:51.344Z,5.33
2022-11-16T22:21:20.165Z,5.33
2022-11-16T22:23:48.620Z,5.34
2022-11-16T22:26:17.191Z,5.37
2022-11-16T22:28:45.563Z,5.38
2022-11-16T22:31:15.253Z,5.43
2022-11-16T22:33:43.653Z,5.45
2022-11-16T22:36:13.739Z,5.44
2022-11-16T22:38:42.074Z,5.46
2022-11-16T22:41:10.627Z,5.38
2022-11-16T22:43:39.235Z,5.41
2022-11-16T22:46:07.872Z,5.49
2022-11-16T22:48:37.661Z,5.50
2022-11-16T22:51:07.864Z,5.52
2022-11-16T22:53:38.556Z,5.54
2022-11-16T22:56:08.564Z,5.59
2022-11-16T22:58:37.503Z,5.55
2022-11-16T23:01:07.469Z,5.54
2022-11-16T23:03:36.494Z,5.56
2022-11-16T23:06:06.496Z,5.59
2022-11-16T23:08:35.747Z,5.60
2022-11-16T23:11:25.373Z,5.63
2022-11-16T23:14:11.863Z,5.69
2022-11-16T23:16:41.556Z,5.79
2022-11-16T23:19:25.297Z,5.77
2022-11-16T23:22:11.297Z,5.77
2022-11-16T23:24:57.051Z,5.80
2022-11-16T23:27:33.578Z,5.85
2022-11-16T23:30:06.658Z,5.84
2022-11-16T23:32:39.436Z,5.83
2022-11-16T23:35:08.629Z,5.85
2022-11-16T23:37:40.299Z,5.82
2022-11-16T23:40:10.180Z,5.87
2022-11-16T23:42:57.376Z,5.76
2022-11-16T23:45:25.699Z,5.69
2022-11-16T23:47:54.121Z,5.60
2022-11-16T23:50:22.762Z,5.54
2022-11-16T23:52:51.135Z,5.61
2022-11-16T23:55:19.485Z,5.81
2022-11-16T23:57:49.448Z,5.78
